Tiempo atmosférico en la estación meteorológica de Molina De Aragón, Guadalajara (1056 m.)



Fecha
DESCASC
Temp. máxima en grados centígrados (hora)
DESCASC
Temp. mínima en grados centígrados (hora)
DESCASC
Temp. media en grados centígrados
DESCASC
Racha de viento máxima en m/sg (hora)
DESCASC
Velocidad máxima media en intervalos de 10 minutos(hora)
DESCASC
Precipitaciones diarias en mm
DESCASC
Precipitaciones de 00:00 a 06:00 en mm
DESCASC
Precipitaciones de 06:00 a 12:00 en mm
DESCASC
Precipitaciones de 12:00 a 18:00 en mm
DESCASC
Precipitaciones de 18:00 a 24:00 en mm
DESCASC
23-06-2019 30.9 (18:30) 13.1 (06:50) 22 9.44 (14:30) 5.28 (13:20) 0 0 0 0 0
22-06-2019 28.1 (16:40) 7 (06:30) 17.6 10.83 (14:00) 3.61 (14:50) 0 0 0 0 0
21-06-2019 23.8 (13:20) 12.9 (23:59) 18.3 7.78 (14:20) 3.61 (14:00) 0 0 0 0 0
20-06-2019 25 (15:00) 9.1 (00:00) 17.1 8.33 (18:50) 3.89 (13:10) 0 0 0 0 0
19-06-2019 25.9 (18:10) 8.1 (00:00) 17 9.44 (11:30) 4.44 (12:20) 0 0 0 0 0
18-06-2019 28.1 (17:00) 14.6 (00:00) 21.4 11.67 (14:20) 5.56 (14:20) 0 0 0 0 0
17-06-2019 28.9 (18:30) 7.5 (00:00) 18.2 8.33 (16:00) 3.89 (17:00) 0 0 0 0 0
16-06-2019 26.7 (15:30) 5.2 (00:00) 16 7.22 (15:20) 3.61 (15:20) 0 0 0 0 0
15-06-2019 24.5 (17:30) 4.2 (00:00) 14.3 6.67 (17:00) 3.61 (16:00) 0 0 0 0 0
14-06-2019 23.9 (17:10) 11.2 (00:00) 17.5 11.11 (19:00) 5.56 (14:50) 3.6 0 3.6 0 0
13-06-2019 24.3 (18:00) 8.5 (00:00) 16.4 7.5 (10:50) 4.17 (12:20) 0 0 0 0 0
12-06-2019 21.7 (18:30) -0.6 (-00:0) 10.6 9.44 (15:10) 3.61 (14:50) 0 0 0 0 0
11-06-2019 13.7 (15:40) 4.5 (00:00) 9.1 8.33 (15:50) 4.44 (16:00) 0.8 0 0 0.8 0
10-06-2019 22.7 (16:40) 9.3 (00:00) 16 7.78 (17:20) 3.89 (18:20) 0 0 0 0 0
09-06-2019 24.9 (17:50) 10.3 (00:00) 17.6 9.17 (13:10) 3.89 (13:40) 0 0 0 0 0
08-06-2019 25.6 (15:50) 1.9 (00:00) 13.8 8.33 (16:20) 3.89 (18:00) 0 0 0 0 0
07-06-2019 19.9 (18:10) 9.1 (00:00) 14.5 11.11 (04:20) 4.17 (04:00) 1.2 0 1.2 0 0
06-06-2019 21.6 (19:10) 2.6 (00:00) 12.1 13.61 (16:50) 6.94 (18:30) 0 0 0 0 0
05-06-2019 17.1 (18:10) 8 (00:00) 12.6 11.11 (12:10) 5.56 (15:10) 5.6 0.4 4.8 0.4 0
04-06-2019 27.3 (15:50) 8.5 (00:00) 17.9 12.22 (15:20) 6.11 (17:10) 0 0 0 0 0
03-06-2019 29.5 (16:10) 11.9 (00:00) 20.7 11.11 (14:30) 5 (16:20) 0 0 0 0 0
02-06-2019 30.1 (18:20) 7.4 (00:00) 18.8 9.72 (16:10) 3.33 (15:20) 0 0 0 0 0
01-06-2019 29.7 (18:30) 5.6 (00:00) 17.7 5.28 (16:10) 2.5 (17:20) 0 0 0 0 0
31-05-2019 28.6 (17:40) 3.3 (00:00) 16 6.67 (18:50) 2.5 (15:20) 0 0 0 0 0
30-05-2019 26.2 (18:10) 2.9 (00:00) 14.6 6.67 (13:10) 2.78 (15:00) 0 0 0 0 0
29-05-2019 19.9 (18:00) 3.1 (00:00) 11.5 9.72 (13:30) 4.17 (13:20) 0 0 0 0 0
28-05-2019 19.6 (16:50) 4.2 (00:00) 11.9 10.28 (18:20) 4.17 (18:20) 0 0 0 0 0
27-05-2019 23.6 (15:20) 3.6 (00:00) 13.6 8.06 (15:10) 3.61 (12:30) 0 0 0 0 0
26-05-2019 20.6 (18:20) 6 (00:00) 13.3 8.06 (14:10) 3.61 (16:10) 0 0 0 0 0
25-05-2019 18 (17:00) 8.4 (00:00) 13.2 6.39 (03:50) 3.33 (19:30) 0 0 0 0 0

Gráficas

Temp. máximas Temp. mínimas Temp. medias Precipitaciones Rachas de viento máximas Velocidades máximas media en intervalos de 10 minutos

Datos horarios

Fecha y hora oficial Temperatura (ºC) Velocidad del viento (km/h) Dirección del viento Racha (km/h) Dirección de racha Precipitación (mm) Presión (hPa) Tendencia (hPa) Humedad (%)
2019-06-23 23:00:00 21.5 3 Este 14 Este 0 895.6 1.1 42
2019-06-23 22:00:00 24.4 3 Sudeste 8 Oeste 0 894.6 0.2 35
2019-06-23 21:00:00 27.5 4 Oeste 14 Sudoeste 0 894.7 0.2 30
2019-06-23 20:00:00 29 10 Oeste 23 Oeste 0 894.5 -0.3 26
2019-06-23 19:00:00 29.9 13 Sudoeste 26 Sur 0 894.4 -0.7 26
2019-06-23 18:00:00 30.2 11 Sudoeste 25 Oeste 0 894.5 -1.1 24
2019-06-23 17:00:00 30.4 11 Sudoeste 29 Sur 0 894.8 -1.2 27
2019-06-23 16:00:00 30.5 10 Sudoeste 27 Sur 0 895.1 -1.1 28
2019-06-23 15:00:00 29.6 13 Sudoeste 34 Sur 0 895.6 -0.6 30
2019-06-23 14:00:00 28.8 12 Sudoeste 33 Sur 0 896 -0.3 28
2019-06-23 13:00:00 28.1 12 Sudoeste 26 Sur 0 896.2 -0.2 33
2019-06-23 12:00:00 27.1 12 Sudoeste 26 Sudoeste 0 896.2 -0.1 32
2019-06-23 11:00:00 25.8 13 Sur 27 Sur 0 896.3 0.3 30
2019-06-23 10:00:00 24 12 Sur 27 Sur 0 896.4 0.6 36
2019-06-23 09:00:00 19.6 4 Este 11 Sudeste 0 896.3 0.7 47
2019-06-23 08:00:00 14.1 0 Calma 5 Oeste 0 896 0.5 75
2019-06-23 07:00:00 13.1 2 Sudeste 5 Sudoeste 0 895.8 0 77
2019-06-23 06:00:00 13.6 2 Sur 5 Sudoeste 0 895.6 -0.4 74
2019-06-23 05:00:00 14.3 2 Sudoeste 8 Sur 0 895.5 -0.6 70
2019-06-23 04:00:00 15.3 2 Sudoeste 6 Sur 0 895.8 -0.4 66
2019-06-23 03:00:00 16.6 3 Oeste 8 Este 0 896 -0.4 68
2019-06-23 02:00:00 16.8 2 Este 8 Este 0 896.1 0 65
2019-06-23 01:00:00 16.1 5 Este 9 Este 0 896.2 0.7 57
2019-06-23 00:00:00 16.2 3 Este 8 Norte 0 896.4 1 51
2019-06-22 23:00:00 18.4 4 Este 8 Sudeste 0 896.1 0.9 45
2019-06-22 22:00:00 22.3 0 Calma 13 Sudoeste 0 895.5 0.4 36
2019-06-22 21:00:00 25 5 Sudoeste 21 Sur 0 895.4 0 29
2019-06-22 20:00:00 26.6 12 Sudoeste 24 Sudoeste 0 895.2 -0.4 28
2019-06-22 19:00:00 27.8 10 Sudoeste 30 Sur 0 895.1 -0.9 25
2019-06-22 18:00:00 27.5 9 Sudoeste 28 Sudoeste 0 895.4 -1 28
2019-06-22 17:00:00 27.6 12 Sudoeste 26 Sudoeste 0 895.6 -1.3 27
2019-06-22 16:00:00 27.4 10 Sudoeste 28 Sur 0 896 -1.5 27
2019-06-22 15:00:00 27 11 Sur 27 Sur 0 896.4 -1.3 33
2019-06-22 14:00:00 26.3 12 Sudoeste 39 Sudoeste 0 896.9 -0.9 31
2019-06-22 13:00:00 25.5 7 Sur 21 Oeste 0 897.5 -0.8 37
2019-06-22 12:00:00 23.1 5 Noroeste 12 Oeste 0 897.7 -0.8 53
2019-06-22 11:00:00 19 4 Oeste 9 Oeste 0 897.8 -0.7 64
2019-06-22 10:00:00 15 3 Sudoeste 5 Sudoeste 0 898.3 0 69
2019-06-22 09:00:00 11.3 3 Sur 4 Sudoeste 0 898.5 0.3 80
2019-06-22 08:00:00 7.6 0 Calma 3 Este 0 898.5 0.3 91
2019-06-22 07:00:00 7 0 Calma 3 Sudeste 0 898.3 -0.4 91
2019-06-22 06:00:00 7.3 2 Este 4 Este 0 898.2 -0.7 89
2019-06-22 05:00:00 8 2 Este 6 Este 0 898.2 -1.1 87
2019-06-22 04:00:00 8.9 0 Calma 4 Nordeste 0 898.7 -0.5 86
2019-06-22 03:00:00 9.8 3 Este 9 Este 0 898.9 -0.2 82
2019-06-22 02:00:00 10.6 3 Sudeste 6 Este 0 899.3 0.6 81
2019-06-22 01:00:00 11.6 3 Sur 7 Este 0 899.2 1.1 78
2019-06-22 00:00:00 12.9 3 Nordeste 10 Este 0 899.1 1.4 74
2019-06-21 23:00:00 14.2 3 Este 8 Este 0 898.7 1.5 70
2019-06-21 22:00:00 16.1 4 Este 22 Este 0 898.1 1.2 63
2019-06-21 21:00:00 17.9 7 Este 16 Este 0 897.7 1.5 61
2019-06-21 20:00:00 19 8 Nordeste 25 Este 0 897.2 0.9 58
2019-06-21 19:00:00 19.7 4 Nordeste 27 Norte 0 896.9 0.7 60
2019-06-21 18:00:00 22.7 5 Norte 17 Norte 0 896.2 -0.1 46
2019-06-21 17:00:00 21.3 5 Nordeste 20 Norte 0 896.3 0 52
2019-06-21 16:00:00 22.1 5 Nordeste 27 Este 0 896.2 0 52
2019-06-21 15:00:00 21.3 7 Norte 28 Norte 0 896.3 -0.3 54
2019-06-21 14:00:00 22.2 13 Norte 25 Norte 0 896.3 -0.2 48
2019-06-21 13:00:00 22.9 5 Norte 17 Norte 0 896.2 -0.5 48
2019-06-21 12:00:00 21.1 4 Nordeste 13 Sudeste 0 896.6 -0.1 55
2019-06-21 11:00:00 19.4 5 Sudeste 18 Este 0 896.5 0.1 58
2019-06-21 10:00:00 17.1 4 Este 13 Este 0 896.7 0.8 66
2019-06-21 09:00:00 15.3 4 Nordeste 15 Este 0 896.7 1.3 73
2019-06-21 08:00:00 14.2 5 Este 14 Este 0 896.4 0.9 76
2019-06-21 07:00:00 13.7 5 Este 10 Este 0 895.9 0.4 77
2019-06-21 06:00:00 13.6 2 Nordeste 13 Este 0 895.4 -0.3 78
2019-06-21 05:00:00 13.7 3 Este 12 Este 0 895.5 0 80
2019-06-21 04:00:00 14 3 Este 10 Este 0 895.5 0.2 80
2019-06-21 03:00:00 14.5 3 Este 18 Este 0 895.7 0.5 79
2019-06-21 02:00:00 14.8 4 Norte 18 Norte 0 895.5 0.7 78
2019-06-21 01:00:00 15.9 5 Norte 15 Norte 0 895.3 1.2 75
2019-06-21 00:00:00 17.3 3 Nordeste 13 Este 0 895.2 1.4 72
2019-06-20 23:00:00 18.2 2 Este 15 Este 0 894.8 1.3 59
2019-06-20 22:00:00 20.9 2 Nordeste 17 Este 0 894.1 0.9 49
2019-06-20 21:00:00 23 8 Oeste 23 Oeste 0 893.8 0.3 34
2019-06-20 20:00:00 24.2 9 Oeste 27 Oeste 0 893.5 -0.1 31
2019-06-20 19:00:00 24.1 10 Sudoeste 30 Oeste 0 893.2 -0.9 36
2019-06-20 18:00:00 23.7 6 Oeste 17 Oeste 0 893.5 -0.7 38
2019-06-20 17:00:00 23.8 9 Sudoeste 26 Oeste 0 893.6 -1 37
2019-06-20 16:00:00 24.3 10 Sudoeste 27 Oeste 0 894.1 -0.9 37
2019-06-20 15:00:00 24.9 11 Oeste 29 Oeste 0 894.2 -0.9 33
2019-06-20 14:00:00 24.4 10 Oeste 27 Sur 0 894.6 -0.8 35
2019-06-20 13:00:00 24.2 10 Oeste 27 Sur 0 895 -0.7 36
2019-06-20 12:00:00 23.6 5 Oeste 16 Sudeste 0 895.1 -0.9 45
2019-06-20 11:00:00 21.5 2 Este 10 Noroeste 0 895.4 -0.5 49
2019-06-20 10:00:00 17.7 3 Oeste 6 Sudoeste 0 895.7 -0.1 57
2019-06-20 09:00:00 13.8 0 Calma 3 Sur 0 896 0.2 67
2019-06-20 08:00:00 9.7 0 Calma 4 Sudeste 0 895.9 0.1 81
2019-06-20 07:00:00 9.2 0 Calma 5 Este 0 895.8 -0.1 82
2019-06-20 06:00:00 9.7 2 Este 5 Sudeste 0 895.8 -0.2 78
2019-06-20 05:00:00 10.5 3 Este 5 Este 0 895.8 -0.5 75
2019-06-20 04:00:00 11.8 0 Calma 6 Sudeste 0 895.9 -0.1 71
2019-06-20 03:00:00 13.3 3 Este 6 Sudeste 0 896 -0.1 67
2019-06-20 02:00:00 14.4 3 Este 10 Este 0 896.3 0.2 63
2019-06-20 01:00:00 14.9 2 Sudoeste 8 Sudeste 0 896 0.7 60
2019-06-20 00:00:00 17 0 Calma 5 Sur 0 896.1 1.1 53
2019-06-19 23:00:00 19 0 Calma 10 Oeste 0 896.1 1.3 47
2019-06-19 22:00:00 21.2 6 Oeste 22 Oeste 0 895.3 0.5 41
2019-06-19 21:00:00 23.1 10 Sudoeste 22 Oeste 0 895 0 36
2019-06-19 20:00:00 24.5 10 Sudoeste 24 Sudoeste 0 894.8 -0.5 35
2019-06-19 19:00:00 25.7 11 Oeste 26 Oeste 0 894.8 -0.9 32
2019-06-19 18:00:00 25.8 11 Oeste 28 Sudoeste 0 895 -1 34
2019-06-19 17:00:00 25.8 12 Sudoeste 29 Sur 0 895.3 -0.9 33
2019-06-19 16:00:00 24.4 12 Sudoeste 27 Sudoeste 0 895.7 -0.7 39
2019-06-19 15:00:00 24.8 12 Oeste 27 Sudoeste 0 896 -0.4 39
2019-06-19 14:00:00 24 12 Sudoeste 33 Oeste 0 896.2 0 42
2019-06-19 13:00:00 22.5 12 Sudoeste 28 Sur 0 896.4 0 46
2019-06-19 12:00:00 21.5 13 Sudoeste 34 Sudoeste 0 896.4 -0.2 49
2019-06-19 11:00:00 19.8 10 Oeste 29 Sudoeste 0 896.2 -0.4 56
2019-06-19 10:00:00 19.1 6 Sudoeste 17 Sudoeste 0 896.4 0.1 59
2019-06-19 09:00:00 14.1 2 Sudeste 3 Sudeste 0 896.6 0.7 58
2019-06-19 08:00:00 8.8 0 Calma 3 Este 0 896.6 0.7 72
2019-06-19 07:00:00 8.3 2 Este 4 Este 0 896.3 0.4 69
2019-06-19 06:00:00 9 3 Este 4 Este 0 895.9 -0.1 66
2019-06-19 05:00:00 9.9 0 Calma 4 Este 0 895.9 -0.3 60
2019-06-19 04:00:00 10.6 2 Este 4 Este 0 895.9 -0.3 55
2019-06-19 03:00:00 11.2 2 Este 9 Este 0 896 0 50
2019-06-19 02:00:00 12 6 Este 8 Este 0 896.2 0.8 44
2019-06-19 01:00:00 14 4 Este 10 Sudeste 0 896.2 1.7 39
2019-06-19 00:00:00 18.1 2 Este 20 Oeste 0 896 1.8 30
2019-06-18 23:00:00 20.5 8 Oeste 18 Oeste 0 895.4 1.3 25
2019-06-18 22:00:00 22.8 6 Oeste 29 Oeste 0 894.5 0.6 26
2019-06-18 21:00:00 24.9 14 Sudoeste 33 Sur 0 894.2 0.1 22
2019-06-18 20:00:00 26.4 14 Sudoeste 35 Sudoeste 0 894.1 -0.4 20
2019-06-18 19:00:00 27.3 18 Sudoeste 36 Sudoeste 0 893.9 -0.8 21
2019-06-18 18:00:00 28.1 17 Sudoeste 37 Oeste 0 894.1 -0.9 22
2019-06-18 17:00:00 28 16 Sudoeste 40 Sur 0 894.5 -1.1 23
2019-06-18 16:00:00 27.7 18 Sur 40 Sudoeste 0 894.7 -1.2 23
2019-06-18 15:00:00 27.3 17 Sudoeste 42 Sudoeste 0 895 -1.2 27
2019-06-18 14:00:00 26.5 14 Sudoeste 34 Sur 0 895.6 -0.6 29
2019-06-18 13:00:00 26 16 Sur 32 Sur 0 895.9 -0.5 29
2019-06-18 12:00:00 24.8 11 Sudoeste 31 Sur 0 896.2 -0.1 27
2019-06-18 11:00:00 24 15 Sur 25 Sudoeste 0 896.2 0.2 30
2019-06-18 10:00:00 22.3 11 Sudoeste 24 Oeste 0 896.4 0.8 31
2019-06-18 09:00:00 16.6 2 Este 7 Este 0 896.3 0.5 59
2019-06-18 08:00:00 14.6 3 Este 8 Este 0 896 0.3 64
2019-06-18 07:00:00 15 3 Nordeste 9 Sudeste 0 895.6 -0.3 61
2019-06-18 06:00:00 15.7 2 Sudeste 5 Sur 0 895.8 -0.4 58
2019-06-18 05:00:00 16.4 0 Calma 5 Sur 0 895.7 -0.7 52
2019-06-18 04:00:00 17.4 2 Sudeste 6 Sur 0 895.9 -0.9 48
2019-06-18 03:00:00 18.1 0 Calma 9 Este 0 896.2 -0.4 44
2019-06-18 02:00:00 18.2 4 Este 9 Este 0 896.4 0.3 37
2019-06-18 01:00:00 16.3 3 Este 10 Sudeste 0 896.8 1 42
2019-06-18 00:00:00 17.1 5 Este 9 Este 0 896.6 1.1 38
2019-06-17 23:00:00 20.1 2 Sudoeste 9 Sudoeste 0 896.1 0.7 33
2019-06-17 22:00:00 21.9 4 Sudoeste 13 Oeste 0 895.8 0.6 28
2019-06-17 21:00:00 24.4 6 Oeste 23 Sudoeste 0 895.5 -0.1 25
2019-06-17 20:00:00 27 10 Oeste 26 Oeste 0 895.4 -0.5 19
2019-06-17 19:00:00 28.3 10 Oeste 28 Sur 0 895.2 -1.1 18
2019-06-17 18:00:00 28.6 11 Oeste 27 Oeste 0 895.6 -1 19
2019-06-17 17:00:00 28.8 14 Sur 30 Oeste 0 895.9 -1.4 22
2019-06-17 16:00:00 28.5 12 Sudoeste 30 Sur 0 896.3 -1.6 21
2019-06-17 15:00:00 28.1 6 Este 19 Este 0 896.6 -1.7 22
2019-06-17 14:00:00 27.6 4 Este 19 Sur 0 897.3 -1.4 21
2019-06-17 13:00:00 25.4 6 Oeste 14 Noroeste 0 897.9 -1.1 31
2019-06-17 12:00:00 24.1 5 Sudoeste 11 Noroeste 0 898.3 -0.8 34
2019-06-17 11:00:00 22.1 4 Oeste 8 Sudoeste 0 898.7 -0.2 32
2019-06-17 10:00:00 18.2 2 Oeste 5 Sudoeste 0 899 0.3 49
2019-06-17 09:00:00 12.9 0 Calma 4 Este 0 899.1 0.6 66
2019-06-17 08:00:00 8.5 2 Sudeste 5 Sur 0 898.9 0.5 80
2019-06-17 07:00:00 7.7 0 Calma 6 Este 0 898.7 0.1 79
2019-06-17 06:00:00 8.5 0 Calma 7 Este 0 898.5 -0.3 76
2019-06-17 05:00:00 9.9 2 Este 6 Este 0 898.4 -0.5 72
2019-06-17 04:00:00 11.4 0 Calma 5 Este 0 898.6 -0.3 65
2019-06-17 03:00:00 12.6 2 Este 6 Este 0 898.8 -0.1 60
2019-06-17 02:00:00 14.4 3 Este 9 Este 0 898.9 0.5 54
2019-06-17 01:00:00 16.1 2 Nordeste 9 Este 0 898.9 0.9 48
2019-06-17 00:00:00 18.5 2 Este 14 Sudoeste 0 898.9 1.2 41
2019-06-16 23:00:00 20.4 8 Sudoeste 19 Sudoeste 0 898.4 0.9 35
2019-06-16 22:00:00 21.2 8 Sudoeste 22 Sudoeste 0 898 0.7 36
2019-06-16 21:00:00 22.6 9 Sudoeste 23 Sudoeste 0 897.7 0.2 32
2019-06-16 20:00:00 24.4 10 Sudoeste 26 Sur 0 897.5 -0.5 24
2019-06-16 19:00:00 25.6 7 Oeste 21 Noroeste 0 897.3 -1.1 24
2019-06-16 18:00:00 26.6 10 Noroeste 21 Sudoeste 0 897.5 -1.1 27
2019-06-16 17:00:00 26.4 10 Oeste 23 Oeste 0 898 -1.1 26
2019-06-16 16:00:00 25.5 8 Sudoeste 26 Oeste 0 898.4 -1.1 26
2019-06-16 15:00:00 26.2 9 Sudoeste 23 Sur 0 898.6 -1.4 27
2019-06-16 14:00:00 25.1 10 Oeste 21 Oeste 0 899.1 -1.2 25
2019-06-16 13:00:00 24.3 6 Sur 21 Oeste 0 899.5 -1 26
2019-06-16 12:00:00 22.5 10 Sudoeste 19 Sudoeste 0 900 -0.5 33
2019-06-16 11:00:00 20.1 2 Sudoeste 5 Sudoeste 0 900.3 0 33
2019-06-16 10:00:00 15.8 3 Sudoeste 5 Oeste 0 900.5 0.3 52
2019-06-16 09:00:00 10.2 3 Sur 5 Sur 0 900.5 0.5 72
2019-06-16 08:00:00 5.9 0 Calma 4 Este 0 900.3 0.1 86
2019-06-16 07:00:00 5.2 0 Calma 4 Sur 0 900.2 -0.4 86
2019-06-16 06:00:00 5.6 0 Calma 6 Sudeste 0 900 -0.8 85
2019-06-16 05:00:00 6.6 2 Este 5 Este 0 900.2 -0.9 82
2019-06-16 04:00:00 7.5 3 Nordeste 6 Sudeste 0 900.6 -0.6 78
2019-06-16 03:00:00 8.9 3 Este 7 Sudeste 0 900.8 -0.1 73
2019-06-16 02:00:00 10.5 2 Sur 9 Este 0 901.1 1 67
2019-06-16 01:00:00 11.7 4 Este 7 Este 0 901.2 2.1 63
2019-06-16 00:00:00 13.2 2 Este 7 Este 0 900.9 2.3 57
2019-06-15 23:00:00 15.2 2 Este 8 Este 0 900.1 1.9 50
2019-06-15 22:00:00 17.5 2 Norte 9 Norte 0 899.1 1.3 37
2019-06-15 21:00:00 20.3 5 Norte 21 Nordeste 0 898.6 0.9 30
2019-06-15 20:00:00 22.6 6 Norte 21 Norte 0 898.2 0.3 27
2019-06-15 19:00:00 24 6 Oeste 21 Norte 0 897.8 -0.3 24
2019-06-15 18:00:00 24.2 12 Noroeste 22 Noroeste 0 897.7 -0.7 25
2019-06-15 17:00:00 24 10 Norte 24 Noroeste 0 897.9 -0.9 26
2019-06-15 16:00:00 22.9 13 Noroeste 22 Norte 0 898.1 -0.9 31
2019-06-15 15:00:00 21.8 11 Noroeste 21 Oeste 0 898.4 -0.8 31
2019-06-15 14:00:00 20.5 10 Noroeste 22 Noroeste 0 898.8 -0.2 36
2019-06-15 13:00:00 18.6 7 Oeste 19 Oeste 0 899 0 37
2019-06-15 12:00:00 17.4 8 Oeste 17 Oeste 0 899.2 0.4 47
2019-06-15 11:00:00 15.9 5 Sudoeste 16 Noroeste 0 899 0.4 48
2019-06-15 10:00:00 13.8 6 Sudoeste 11 Oeste 0 899 0.8 58
2019-06-15 09:00:00 9.8 4 Oeste 8 Oeste 0 898.8 1 68
2019-06-15 08:00:00 5 0 Calma 4 Sur 0 898.6 1.2 81
2019-06-15 07:00:00 4.4 0 Calma 6 Este 0 898.2 1 82
2019-06-15 06:00:00 5.3 2 Este 7 Nordeste 0 897.8 0.9 78
2019-06-15 05:00:00 6 3 Este 6 Este 0 897.4 0.9 75
2019-06-15 04:00:00 7.4 2 Nordeste 6 Sudeste 0 897.2 1.1 69
2019-06-15 03:00:00 9 3 Este 10 Oeste 0 896.9 1.1 61
2019-06-15 02:00:00 11.7 7 Oeste 11 Oeste 0 896.5 1.2 48
2019-06-15 01:00:00 13.1 3 Oeste 17 Sudoeste 0 896.1 1.5 41
2019-06-15 00:00:00 14.5 10 Oeste 18 Sudoeste 0 895.8 2 35
2019-06-14 23:00:00 15.4 7 Oeste 14 Oeste 0 895.3 2.3 36
2019-06-14 22:00:00 17.4 6 Sudoeste 23 Oeste 0 894.6 2.1 32
2019-06-14 21:00:00 19.7 11 Sudoeste 32 Sudoeste 0 893.8 1.4 28
2019-06-14 20:00:00 21.6 13 Oeste 34 Oeste 0 893 0.7 25
2019-06-14 19:00:00 22.9 20 Sudoeste 40 Sudoeste 0 892.5 0 23
2019-06-14 18:00:00 23.5 17 Sudoeste 37 Oeste 0 892.4 -0.2 27
2019-06-14 17:00:00 23.7 14 Sudoeste 37 Oeste 0 892.3 -0.4 31
2019-06-14 16:00:00 23.1 17 Sudoeste 37 Oeste 0 892.5 -0.1 29
2019-06-14 15:00:00 22.6 16 Sudoeste 37 Sudoeste 0 892.6 -0.3 33
2019-06-14 14:00:00 21.9 14 Sudoeste 34 Sur 0 892.7 -0.3 38
2019-06-14 13:00:00 21 13 Sudoeste 29 Sudoeste 0 892.6 -0.6 43
2019-06-14 12:00:00 18.8 4 Sudoeste 18 Sudoeste 0 892.9 0 61
2019-06-14 11:00:00 16.5 6 Sudoeste 11 Sudoeste 0 893 0.9 78
2019-06-14 10:00:00 13.3 0 Calma 7 Este 2.6 893.2 1.6 91
2019-06-14 09:00:00 12.7 5 Norte 10 Norte 1 892.9 1.4 88
2019-06-14 08:00:00 11.7 0 Calma 8 Este 0 892.1 0.6 83
2019-06-14 07:00:00 11.2 2 Nordeste 5 Sudeste 0 891.6 0 82
2019-06-14 06:00:00 11.4 0 Calma 4 Sur 0 891.5 -0.4 81
2019-06-14 05:00:00 11.9 2 Sudeste 5 Sudeste 0 891.5 -0.7 79
2019-06-14 04:00:00 12.9 0 Calma 4 Sudeste 0 891.6 -0.6 79
2019-06-14 03:00:00 14 2 Este 5 Sur 0 891.9 -0.4 78
2019-06-14 02:00:00 14.7 3 Sudoeste 13 Oeste 0 892.2 0.3 71
2019-06-14 01:00:00 14.8 2 Este 6 Este 0 892.2 1.1 65
2019-06-14 00:00:00 15.9 3 Sudeste 10 Este 0 892.3 1.4 62
2019-06-13 23:00:00 17.9 2 Este 7 Sudoeste 0 891.9 1.2 51
2019-06-13 22:00:00 20 4 Sudoeste 13 Sur 0 891.1 0.5 45
2019-06-13 21:00:00 21.7 7 Sudoeste 17 Sur 0 890.9 0.2 38
2019-06-13 20:00:00 22.2 11 Sudoeste 21 Sur 0 890.7 -0.6 36
2019-06-13 19:00:00 22.5 9 Sudoeste 23 Sudoeste 0 890.6 -1 35
2019-06-13 18:00:00 23.8 8 Sudoeste 22 Sur 0 890.7 -0.9 34
2019-06-13 17:00:00 23.1 10 Sudoeste 25 Sur 0 891.3 -0.8 35
2019-06-13 16:00:00 22.9 12 Sudoeste 24 Sur 0 891.6 -0.6 34
2019-06-13 15:00:00 22.9 13 Sudoeste 27 Sudoeste 0 891.6 -1 42
2019-06-13 14:00:00 21.8 10 Sudoeste 27 Sur 0 892.1 -0.4 41
2019-06-13 13:00:00 21 5 Sudoeste 27 Sur 0 892.2 -0.4 44
2019-06-13 12:00:00 20.2 11 Sudoeste 25 Sur 0 892.6 0.3 43
2019-06-13 11:00:00 20 12 Sur 27 Sur 0 892.5 0.4 43
2019-06-13 10:00:00 17.9 12 Sur 27 Sudeste 0 892.6 0.7 50
2019-06-13 09:00:00 15.3 8 Sur 22 Sur 0 892.3 0.6 62
2019-06-13 08:00:00 11.9 4 Nordeste 13 Este 0 892.1 0.4 76
2019-06-13 07:00:00 10 4 Este 9 Este 0 891.9 0.3 79
2019-06-13 06:00:00 10.6 4 Este 17 Este 0 891.7 -0.1 77
2019-06-13 05:00:00 9.1 4 Nordeste 16 Este 0 891.7 -0.5 84
2019-06-13 04:00:00 8.8 3 Este 7 Este 0 891.6 -0.8 75
2019-06-13 03:00:00 9.5 3 Oeste 14 Nordeste 0 891.8 -0.6 70
2019-06-13 02:00:00 8.9 3 Sur 6 Norte 0 892.2 0.1 69
2019-06-13 01:00:00 9.4 3 Este 10 Este 0 892.4 0.7 62
2019-06-13 00:00:00 10.7 4 Este 12 Este 0 892.4 0.8 53
2019-06-12 23:00:00 13.6 3 Este 14 Norte 0 892.1 0.6 43
2019-06-12 22:00:00 16.1 2 Sudoeste 7 Oeste 0 891.7 0.3 36
2019-06-12 21:00:00 18.7 3 Sudoeste 17 Sur 0 891.6 -0.3 29
2019-06-12 20:00:00 20 8 Oeste 25 Sudoeste 0 891.5 -0.8 26
2019-06-12 19:00:00 21.5 10 Sudoeste 25 Oeste 0 891.4 -1.3 22
2019-06-12 18:00:00 21.4 10 Sur 27 Sur 0 891.9 -1.2 21
2019-06-12 17:00:00 21.2 7 Sudoeste 26 Sudoeste 0 892.3 -1.5 26
2019-06-12 16:00:00 20.4 6 Sudoeste 34 Sur 0 892.7 -1.4 26
2019-06-12 15:00:00 19.6 7 Sur 27 Sur 0 893.1 -1.4 25
2019-06-12 14:00:00 18.5 8 Oeste 22 Oeste 0 893.8 -0.9 30
2019-06-12 13:00:00 16.8 6 Sudoeste 19 Oeste 0 894.1 -0.8 33
2019-06-12 12:00:00 16.1 5 Oeste 24 Oeste 0 894.5 -0.4 32
2019-06-12 11:00:00 13.7 6 Noroeste 14 Noroeste 0 894.7 0.2 44
2019-06-12 10:00:00 8.8 3 Sudoeste 6 Oeste 0 894.9 0.6 68
2019-06-12 09:00:00 4.5 2 Noroeste 5 Norte 0 894.9 0.7 86
2019-06-12 08:00:00 0.2 0 Calma 4 Este 0 894.5 0 95
2019-06-12 07:00:00 -0.5 0 Calma 5 Este 0 894.3 -0.2 92
2019-06-12 06:00:00 0 2 Sudeste 4 Sur 0 894.2 -0.5 92
2019-06-12 05:00:00 0.4 0 Calma 5 Sur 0 894.5 -0.5 92
2019-06-12 04:00:00 1 0 Calma 4 Norte 0 894.5 -1 91
2019-06-12 03:00:00 1.7 2 Sudeste 5 Este 0 894.7 -0.8 90
2019-06-12 02:00:00 2.6 2 Este 7 Este 0 895 -0.5 88
2019-06-12 01:00:00 3.5 4 Este 11 Este 0 895.5 0.5 88
2019-06-12 00:00:00 4.5 0 Calma 7 Sudeste 0 895.5 0.8 84
2019-06-11 23:00:00 6.1 4 Sudeste 6 Sudeste 0 895.5 1 81
2019-06-11 22:00:00 8.4 2 Este 9 Sudeste 0 895 0.7 73
2019-06-11 21:00:00 10.6 4 Este 14 Este 0 894.7 0.7 60
2019-06-11 20:00:00 12.4 4 Nordeste 23 Noroeste 0 894.5 0.2 58
2019-06-11 19:00:00 12.5 4 Nordeste 15 Este 0 894.3 -0.3 59
2019-06-11 18:00:00 11.7 6 Este 17 Sudeste 0 894 -0.1 64
2019-06-11 17:00:00 10 6 Este 25 Noroeste 0.4 894.3 0 81
2019-06-11 16:00:00 10.6 16 Norte 30 Norte 0.2 894.6 0.6 73
2019-06-11 15:00:00 11.2 6 Este 18 Este 0 894.1 0.5 69
2019-06-11 14:00:00 9.4 4 Nordeste 15 Este 0 894.3 0.9 79
2019-06-11 13:00:00 8.2 4 Nordeste 15 Este 0.2 894 1 86
2019-06-11 12:00:00 8.4 6 Norte 17 Norte 0 893.6 0.8 84
2019-06-11 11:00:00 8.8 7 Norte 21 Nordeste 0 893.4 1 73
2019-06-11 10:00:00 9.1 8 Norte 19 Norte 0 893 0.7 68
2019-06-11 09:00:00 8.6 4 Norte 16 Este 0 892.8 0.7 70
2019-06-11 08:00:00 8.2 4 Nordeste 14 Este 0 892.4 0.1 69
2019-06-11 07:00:00 8.3 3 Nordeste 14 Este 0 892.3 -0.4 66
2019-06-11 06:00:00 9 2 Nordeste 12 Este 0 892.1 -1 68
2019-06-11 05:00:00 9.2 0 Calma 11 Nordeste 0 892.3 -1.6 66
2019-06-11 04:00:00 9.6 3 Este 13 Sudeste 0 892.7 -2 66
2019-06-11 03:00:00 9.5 6 Este 14 Este 0 893.1 -2 66
2019-06-11 02:00:00 9.2 4 Este 14 Sudeste 0 893.9 -1 67
2019-06-11 01:00:00 9.2 3 Este 16 Sudeste 0 894.7 0.5 69
2019-06-11 00:00:00 10.1 7 Este 17 Sudeste 0 895.1 1.4 66
2019-06-10 23:00:00 11.8 6 Sudeste 17 Este 0 894.9 1.8 60
2019-06-10 22:00:00 14.3 4 Nordeste 20 Este 0 894.2 1 52
2019-06-10 21:00:00 18 6 Norte 25 Noroeste 0 893.7 -0.1 33
2019-06-10 20:00:00 20.6 10 Noroeste 24 Oeste 0 893.1 -1 34
2019-06-10 19:00:00 21.4 10 Oeste 24 Oeste 0 893.2 -1.3 32
2019-06-10 18:00:00 21.7 12 Noroeste 28 Oeste 0 893.8 -1.2 32
2019-06-10 17:00:00 21.8 8 Noroeste 27 Noroeste 0 894.1 -1.5 30
2019-06-10 16:00:00 21.8 12 Oeste 25 Oeste 0 894.5 -1.4 36
2019-06-10 15:00:00 21.5 9 Oeste 27 Noroeste 0 895 -1.1 32
2019-06-10 14:00:00 19.9 13 Oeste 27 Noroeste 0 895.6 -0.9 39
2019-06-10 13:00:00 19.5 8 Oeste 23 Sudoeste 0 895.9 -0.8 41
2019-06-10 12:00:00 18.4 9 Oeste 21 Oeste 0 896.1 -0.8 46
2019-06-10 11:00:00 16.4 5 Oeste 14 Oeste 0 896.5 -0.2 57
2019-06-10 10:00:00 13.8 4 Sudoeste 8 Sur 0 896.7 0 69
2019-06-10 09:00:00 10.5 2 Este 9 Oeste 0 896.9 0.6 84
2019-06-10 08:00:00 9.6 6 Noroeste 15 Noroeste 0 896.7 0.1 87
2019-06-10 07:00:00 9.7 6 Oeste 12 Oeste 0 896.7 -0.3 85
2019-06-10 06:00:00 10.1 0 Calma 6 Sudoeste 0 896.3 -0.7 84
2019-06-10 05:00:00 10.4 3 Sur 7 Sudoeste 0 896.6 -0.3 80
2019-06-10 04:00:00 10.5 3 Este 6 Norte 0 897 0.4 85
2019-06-10 03:00:00 10.4 0 Calma 12 Norte 0 897 0.7 79
2019-06-10 02:00:00 10.2 4 Noroeste 9 Noroeste 0 896.9 0.8 62
2019-06-10 01:00:00 10.5 2 Este 10 Norte 0 896.6 1.3 54
2019-06-10 00:00:00 12.1 3 Este 6 Sudeste 0 896.3 1.3 48
2019-06-09 23:00:00 15.1 2 Este 9 Sur 0 896.1 1.2 40
2019-06-09 22:00:00 18.4 0 Calma 17 Oeste 0 895.3 0.7 31
2019-06-09 21:00:00 21.2 10 Oeste 22 Sur 0 895 0.3 24
2019-06-09 20:00:00 22.9 9 Sudoeste 25 Oeste 0 894.9 0 23
2019-06-09 19:00:00 24.3 8 Sudoeste 23 Oeste 0 894.6 -0.9 23
2019-06-09 18:00:00 24.8 10 Oeste 26 Sudoeste 0 894.7 -1.1 24
2019-06-09 17:00:00 24.5 10 Sudoeste 31 Sur 0 894.9 -1.3 25
2019-06-09 16:00:00 23.6 9 Oeste 28 Sudoeste 0 895.5 -1.1 30
2019-06-09 15:00:00 23.9 12 Sudoeste 29 Oeste 0 895.8 -1.1 29
2019-06-09 14:00:00 23.7 12 Sudoeste 33 Sur 0 896.2 -0.7 33
2019-06-09 13:00:00 22.9 13 Oeste 30 Oeste 0 896.6 -0.6 30
2019-06-09 12:00:00 22 11 Oeste 28 Oeste 0 896.9 -0.4 34
2019-06-09 11:00:00 20.7 11 Oeste 22 Oeste 0 896.9 -0.4 44
2019-06-09 10:00:00 18.7 3 Oeste 9 Noroeste 0 897.2 -0.2 52
2019-06-09 09:00:00 15.1 5 Noroeste 11 Oeste 0 897.3 0 62
2019-06-09 08:00:00 10.7 0 Calma 3 Sudeste 0 897.3 -0.2 79
2019-06-09 07:00:00 10.6 0 Calma 5 Sudeste 0 897.4 -0.3 77
2019-06-09 06:00:00 12 3 Sudoeste 8 Sudeste 0 897.3 -0.7 74
2019-06-09 05:00:00 13.1 0 Calma 6 Sur 0 897.5 -0.9 70
2019-06-09 04:00:00 13.6 2 Sur 7 Sur 0 897.7 -0.8 66
2019-06-09 03:00:00 14.3 4 Norte 8 Norte 0 898 -0.6 61
2019-06-09 02:00:00 14.9 3 Este 6 Este 0 898.4 -0.2 60
2019-06-09 01:00:00 16.1 3 Sudeste 9 Sur 0 898.5 0.5 54
2019-06-09 00:00:00 16.9 3 Sudoeste 10 Este 0 898.6 1 52
2019-06-08 23:00:00 17.8 3 Este 15 Sudeste 0 898.6 1 51
2019-06-08 22:00:00 19.4 8 Sur 24 Sur 0 898 0.4 45
2019-06-08 21:00:00 21.3 11 Sur 20 Sur 0 897.6 0 42
2019-06-08 20:00:00 22.4 9 Sudoeste 23 Sudoeste 0 897.6 -0.4 37
2019-06-08 19:00:00 24 12 Sudoeste 27 Sudoeste 0 897.6 -0.8 33
2019-06-08 18:00:00 25.4 14 Oeste 28 Oeste 0 897.6 -1.2 30
2019-06-08 17:00:00 24.5 10 Oeste 30 Sudoeste 0 898 -1.4 31
2019-06-08 16:00:00 25.4 10 Sur 28 Sudoeste 0 898.4 -1.3 30
2019-06-08 15:00:00 24.5 10 Sur 27 Sur 0 898.8 -1.6 29
2019-06-08 14:00:00 23.5 10 Oeste 29 Oeste 0 899.4 -1.2 37
2019-06-08 13:00:00 22.4 7 Oeste 18 Sudoeste 0 899.7 -1.6 40
2019-06-08 12:00:00 20.5 8 Este 26 Sudeste 0 900.4 -1 41
2019-06-08 11:00:00 18.7 3 Sudeste 14 Este 0 900.6 -1 40
2019-06-08 10:00:00 12.4 3 Oeste 6 Oeste 0 901.3 -0.2 58
2019-06-08 09:00:00 7.5 3 Oeste 5 Sudoeste 0 901.4 -0.1 71
2019-06-08 08:00:00 3.7 0 Calma 5 Este 0 901.6 0.2 85
2019-06-08 07:00:00 1.9 2 Este 4 Este 0 901.5 0.1 87
2019-06-08 06:00:00 2.2 2 Este 4 Este 0 901.5 -0.1 84
2019-06-08 05:00:00 2.9 2 Este 8 Este 0 901.4 -0.1 82
2019-06-08 04:00:00 3.7 2 Este 5 Sudeste 0 901.4 0 80
2019-06-08 03:00:00 4.6 2 Este 5 Sur 0 901.6 0.7 77
2019-06-08 02:00:00 5.9 2 Este 7 Este 0 901.5 0.8 72
2019-06-08 01:00:00 7.3 4 Este 8 Este 0 901.4 1.8 69
2019-06-08 00:00:00 9.1 2 Este 5 Este 0 900.9 2.2 62
2019-06-07 23:00:00 11.1 2 Este 5 Norte 0 900.7 2.6 54
2019-06-07 22:00:00 13.9 2 Este 18 Norte 0 899.6 2.1 41
2019-06-07 21:00:00 16.7 5 Noroeste 16 Noroeste 0 898.7 1.4 29
2019-06-07 20:00:00 18.4 9 Noroeste 24 Norte 0 898.1 1.1 28
2019-06-07 19:00:00 19.5 9 Oeste 25 Sudoeste 0 897.5 0.6 27
2019-06-07 18:00:00 19.7 9 Oeste 21 Oeste 0 897.3 0.8 25
2019-06-07 17:00:00 19.3 6 Oeste 25 Oeste 0 897 0.8 30
2019-06-07 16:00:00 18.4 11 Sudoeste 28 Oeste 0 896.9 0.9 31
2019-06-07 15:00:00 17.8 10 Oeste 31 Sudoeste 0 896.5 1.1 33
2019-06-07 14:00:00 16.7 10 Sudoeste 24 Sudoeste 0 896.2 1.2 37
2019-06-07 13:00:00 15.8 9 Noroeste 26 Oeste 0 896 1.7 43
2019-06-07 12:00:00 14.1 12 Sudoeste 25 Oeste 0 895.4 2.2 46
2019-06-07 11:00:00 13 11 Oeste 27 Oeste 0 895 2.8 56
2019-06-07 10:00:00 11.1 12 Oeste 28 Oeste 0 894.3 3.3 71
2019-06-07 09:00:00 10.1 11 Oeste 24 Sudoeste 0 893.2 2.8 84
2019-06-07 08:00:00 10.4 12 Oeste 30 Sudoeste 1.2 892.2 2.4 87
2019-06-07 07:00:00 12.4 10 Sudoeste 27 Oeste 0 891 1.3 68
2019-06-07 06:00:00 12.7 14 Sudoeste 31 Oeste 0 890.4 1 62
2019-06-07 05:00:00 12.8 12 Sudoeste 40 Sudoeste 0 889.8 0.3 56
2019-06-07 04:00:00 13.3 15 Sudoeste 37 Sudoeste 0 889.7 0 46
2019-06-07 03:00:00 13.6 12 Sudoeste 32 Sur 0 889.4 -0.1 43
2019-06-07 02:00:00 13.5 12 Sur 28 Sur 0 889.5 0.3 42
2019-06-07 01:00:00 11.7 2 Sur 9 Sur 0 889.7 1 52
2019-06-07 00:00:00 13.3 2 Sur 10 Sudoeste 0 889.5 0.5 44
2019-06-06 23:00:00 15.7 5 Sur 16 Sur 0 889.2 0.4 34
2019-06-06 22:00:00 17.6 6 Sudoeste 22 Sudoeste 0 888.7 -0.4 31
2019-06-06 21:00:00 19.4 9 Sudoeste 37 Sudoeste 0 889 -1.2 28
2019-06-06 20:00:00 20.7 18 Sudoeste 40 Sur 0 888.8 -2.1 25
2019-06-06 19:00:00 21.4 23 Sur 47 Sur 0 889.1 -2.6 28
2019-06-06 18:00:00 21.2 21 Sur 47 Sur 0 890.2 -1.9 28
2019-06-06 17:00:00 21.2 18 Sudoeste 49 Sur 0 890.9 -1.7 27
2019-06-06 16:00:00 19.5 17 Sudoeste 39 Sur 0 891.7 -1.3 27
2019-06-06 15:00:00 19.5 21 Sur 36 Sur 0 892.1 -1.3 28
2019-06-06 14:00:00 18.9 17 Sur 39 Sudoeste 0 892.6 -1 30
2019-06-06 13:00:00 18.3 10 Sur 27 Sur 0 893 -0.8 40
2019-06-06 12:00:00 16.8 14 Sudoeste 34 Sudoeste 0 893.4 -0.7 38
2019-06-06 11:00:00 15.7 15 Sudoeste 29 Sudoeste 0 893.6 -0.7 42
2019-06-06 10:00:00 11.7 3 Este 7 Este 0 893.8 -0.5 60
2019-06-06 09:00:00 6.9 2 Sur 4 Sudeste 0 894.1 -0.1 79
2019-06-06 08:00:00 3.6 0 Calma 5 Sudeste 0 894.3 0.2 95
2019-06-06 07:00:00 2.6 0 Calma 4 Este 0 894.3 0.2 93
2019-06-06 06:00:00 3 2 Este 5 Sudeste 0 894.2 0.1 92
2019-06-06 05:00:00 3.7 5 Este 6 Este 0 894.1 -0.1 92
2019-06-06 04:00:00 4.6 3 Este 5 Este 0 894.1 -0.1 90
2019-06-06 03:00:00 5.5 0 Calma 4 Sudeste 0 894.1 -0.1 89
2019-06-06 02:00:00 6.7 0 Calma 3 Este 0 894.2 0.2 87
2019-06-06 01:00:00 7.6 2 Sudeste 9 Nordeste 0 894.2 1.1 85
2019-06-06 00:00:00 8.5 3 Nordeste 8 Este 0 894.2 1.3 81
2019-06-05 23:00:00 10.1 4 Este 9 Este 0 894 1.3 72
2019-06-05 22:00:00 12.4 0 Calma 7 Nordeste 0 893.1 0.7 59
2019-06-05 21:00:00 14 5 Noroeste 16 Oeste 0 892.9 0.5 47
2019-06-05 20:00:00 15.3 7 Oeste 22 Oeste 0 892.7 0.5 40
2019-06-05 19:00:00 16.7 12 Noroeste 27 Noroeste 0 892.4 0.2 39
2019-06-05 18:00:00 16.8 12 Noroeste 31 Noroeste 0 892.4 0.1 38
2019-06-05 17:00:00 16 15 Noroeste 31 Oeste 0 892.2 -0.3 37
2019-06-05 16:00:00 15.7 15 Noroeste 33 Oeste 0 892.2 0.2 45
2019-06-05 15:00:00 15.7 18 Oeste 33 Oeste 0 892.3 0.1 46
2019-06-05 14:00:00 14.1 18 Oeste 38 Oeste 0 892.5 2.9 59
2019-06-05 13:00:00 12.5 15 Oeste 40 Oeste 0.4 892 2.8 71
2019-06-05 12:00:00 8.6 18 Oeste 40 Oeste 2.8 892.2 3.2 84
2019-06-05 11:00:00 11.9 12 Sudoeste 37 Sudoeste 1.8 889.6 1.2 80
2019-06-05 10:00:00 13.3 18 Oeste 36 Sudoeste 0 889.2 1 62
2019-06-05 09:00:00 12.2 12 Oeste 23 Oeste 0 889 0.9 79
2019-06-05 08:00:00 12 8 Oeste 25 Sudoeste 0.2 888.4 0.2 84
2019-06-05 07:00:00 12.9 7 Sudoeste 17 Sudoeste 0 888.2 0 81
2019-06-05 06:00:00 13.1 6 Oeste 22 Sudoeste 0.2 888.1 -0.7 83
2019-06-05 05:00:00 14 12 Sudoeste 27 Sudoeste 0.2 888.2 -1.3 74
2019-06-05 04:00:00 13.5 0 Calma 5 Sur 0 888.2 -1.6 66
2019-06-05 03:00:00 13.8 2 Sudeste 8 Este 0 888.8 -1.3 61
2019-06-05 02:00:00 13.9 3 Este 7 Este 0 889.5 -0.7 60
2019-06-05 01:00:00 14.5 4 Sudeste 8 Nordeste 0 889.8 0.3 55
2019-06-05 00:00:00 17 2 Este 9 Oeste 0 890.1 0.8 47
2019-06-04 23:00:00 19.4 6 Oeste 13 Oeste 0 890.2 0.8 40
2019-06-04 22:00:00 21.2 6 Sudoeste 27 Oeste 0 889.5 -0.2 37
2019-06-04 21:00:00 23.5 12 Sudoeste 33 Sudoeste 0 889.3 -0.7 33
2019-06-04 20:00:00 24.8 13 Sudoeste 38 Sur 0 889.4 -1.2 31
2019-06-04 19:00:00 25.1 13 Sudoeste 36 Sudoeste 0 889.7 -1.4 31
2019-06-04 18:00:00 27.1 18 Sur 41 Sur 0 890 -1.8 27
2019-06-04 17:00:00 26.5 15 Sudoeste 41 Sur 0 890.6 -1.8 27
2019-06-04 16:00:00 26.9 14 Sudoeste 44 Sudoeste 0 891.1 -1.9 24
2019-06-04 15:00:00 26.6 17 Sudoeste 36 Sudoeste 0 891.8 -1.5 27
2019-06-04 14:00:00 26.1 15 Sudoeste 33 Sudoeste 0 892.4 -1.1 28
2019-06-04 13:00:00 25 16 Sudoeste 39 Sur 0 893 -0.6 31
2019-06-04 12:00:00 23.3 20 Sudoeste 37 Sudoeste 0 893.3 -0.4 35
2019-06-04 11:00:00 23.6 13 Sudoeste 28 Sur 0 893.5 -0.5 35
2019-06-04 10:00:00 22 10 Sudoeste 23 Sudoeste 0 893.6 -0.4 36
2019-06-04 09:00:00 14.9 0 Calma 4 Sudoeste 0 893.7 -0.2 58
2019-06-04 08:00:00 9.5 2 Este 3 Este 0 894 0 75
2019-06-04 07:00:00 8.5 0 Calma 4 Este 0 894 -0.4 75
2019-06-04 06:00:00 9.2 0 Calma 5 Este 0 893.9 -0.9 70
2019-06-04 05:00:00 10 2 Este 6 Este 0 894 -1.5 64
2019-06-04 04:00:00 10.8 2 Sudeste 5 Sur 0 894.4 -1.5 59
2019-06-04 03:00:00 12 0 Calma 5 Sur 0 894.8 -1.2 54
2019-06-04 02:00:00 13.2 0 Calma 10 Este 0 895.5 -0.4 50
2019-06-04 01:00:00 13.6 2 Norte 6 Norte 0 895.9 0.5 47
2019-06-04 00:00:00 15.2 2 Este 7 Este 0 896 0.7 45
2019-06-03 23:00:00 17.9 4 Este 6 Este 0 895.9 0.6 37
2019-06-03 22:00:00 22.6 2 Nordeste 17 Sudoeste 0 895.4 -0.2 26
2019-06-03 21:00:00 25.9 10 Sudoeste 28 Sudoeste 0 895.3 -0.5 21
2019-06-03 20:00:00 27.4 9 Sudoeste 27 Oeste 0 895.3 -1 18
2019-06-03 19:00:00 28.8 13 Sudoeste 33 Sudoeste 0 895.6 -1.2 18
2019-06-03 18:00:00 29.3 11 Sudoeste 29 Oeste 0 895.8 -1.5 18
2019-06-03 17:00:00 29.2 14 Sudoeste 35 Sudoeste 0 896.3 -1.4 19
2019-06-03 16:00:00 29.2 17 Oeste 40 Sudoeste 0 896.8 -1.1 21
2019-06-03 15:00:00 28.3 14 Sudoeste 40 Oeste 0 897.3 -0.8 26
2019-06-03 14:00:00 27.7 14 Oeste 32 Oeste 0 897.7 -0.5 28
2019-06-03 13:00:00 27.7 13 Sudoeste 28 Sudoeste 0 897.9 -0.5 27
2019-06-03 12:00:00 26.7 4 Nordeste 14 Oeste 0 898.1 -0.4 34
2019-06-03 11:00:00 24.2 4 Oeste 11 Sudoeste 0 898.2 -0.2 34
2019-06-03 10:00:00 21.4 2 Oeste 5 Oeste 0 898.4 0.1 43
2019-06-03 09:00:00 16.8 2 Sur 4 Sur 0 898.5 0.6 56
2019-06-03 08:00:00 13.1 0 Calma 5 Este 0 898.4 0.2 67
2019-06-03 07:00:00 12.1 0 Calma 5 Sudeste 0 898.3 -0.1 70
2019-06-03 06:00:00 11.9 0 Calma 4 Este 0 897.9 -0.8 70
2019-06-03 05:00:00 12.2 2 Este 6 Este 0 898.2 -1 67
2019-06-03 04:00:00 12.8 2 Este 8 Sudeste 0 898.4 -0.8 63
2019-06-03 03:00:00 13.8 2 Este 9 Este 0 898.7 -0.1 59
2019-06-03 02:00:00 15.5 2 Este 7 Sudeste 0 899.2 0.9 52
2019-06-03 01:00:00 17.1 3 Noroeste 20 Sudeste 0 899.2 1.6 46
2019-06-03 00:00:00 17.1 4 Norte 12 Noroeste 0 898.8 1.3 45
2019-06-02 23:00:00 19 2 Este 10 Sudoeste 0 898.3 0.9 42
2019-06-02 22:00:00 22.2 0 Calma 9 Sudoeste 0 897.6 0.1 34
2019-06-02 21:00:00 26 6 Oeste 15 Sudoeste 0 897.5 -0.2 26
2019-06-02 20:00:00 28.1 6 Oeste 18 Oeste 0 897.4 -0.7 19
2019-06-02 19:00:00 29.2 8 Oeste 21 Noroeste 0 897.5 -0.8 20
2019-06-02 18:00:00 29.2 3 Sudoeste 14 Sudoeste 0 897.7 -1.1 21
2019-06-02 17:00:00 28.5 7 Oeste 35 Oeste 0 898.1 -1.4 21
2019-06-02 16:00:00 29.5 6 Norte 21 Sur 0 898.3 -1.7 23
2019-06-02 15:00:00 29.5 3 Sudoeste 22 Oeste 0 898.8 -1.3 22
2019-06-02 14:00:00 28.3 8 Sudoeste 21 Oeste 0 899.5 -0.9 24
2019-06-02 13:00:00 27.5 8 Oeste 21 Oeste 0 900 -0.7 26
2019-06-02 12:00:00 26.1 7 Oeste 19 Sudoeste 0 900.1 -0.5 31
2019-06-02 11:00:00 22.8 3 Sudoeste 6 Sudoeste 0 900.4 -0.3 46
2019-06-02 10:00:00 18 3 Sudoeste 5 Sudoeste 0 900.7 0 55
2019-06-02 09:00:00 13 0 Calma 3 Sudoeste 0 900.6 0.2 65
2019-06-02 08:00:00 8.3 2 Este 3 Este 0 900.7 0.3 82
2019-06-02 07:00:00 7.4 0 Calma 3 Este 0 900.7 0.1 82
2019-06-02 06:00:00 8 0 Calma 5 Sudeste 0 900.4 -0.4 81
2019-06-02 05:00:00 8.9 2 Este 4 Este 0 900.4 -0.6 77
2019-06-02 04:00:00 10.2 3 Este 5 Sudeste 0 900.6 -0.2 73
2019-06-02 03:00:00 11.5 2 Este 4 Sudeste 0 900.8 0 69
2019-06-02 02:00:00 13.2 2 Este 5 Este 0 901 0.6 64
2019-06-02 01:00:00 15.1 0 Calma 6 Nordeste 0 900.8 0.9 59
2019-06-02 00:00:00 16.7 2 Sudoeste 10 Este 0 900.8 1.4 55
2019-06-01 23:00:00 19.3 5 Este 11 Este 0 900.4 1.3 47
2019-06-01 22:00:00 21.8 2 Nordeste 19 Este 0 899.9 0.9 39
2019-06-01 21:00:00 24 0 Calma 14 Norte 0 899.4 0.1 29
2019-06-01 20:00:00 27.6 5 Nordeste 17 Norte 0 899.1 -0.6 24
2019-06-01 19:00:00 29.5 6 Sudeste 17 Nordeste 0 899 -1.1 19
2019-06-01 18:00:00 28.8 3 Este 16 Este 0 899.3 -1.4 20
2019-06-01 17:00:00 29.3 6 Sur 19 Noroeste 0 899.7 -1.8 19
2019-06-01 16:00:00 28.8 8 Oeste 18 Oeste 0 900.1 -1.8 25
2019-06-01 15:00:00 28 6 Oeste 17 Sur 0 900.7 -1.7 24
2019-06-01 14:00:00 27 7 Sur 16 Noroeste 0 901.5 -1.1 27
2019-06-01 13:00:00 25.7 7 Sudoeste 15 Sudoeste 0 901.9 -1.1 30
2019-06-01 12:00:00 24.2 5 Oeste 13 Sudoeste 0 902.4 -0.6 34
2019-06-01 11:00:00 21.3 3 Oeste 6 Oeste 0 902.6 -0.4 46
2019-06-01 10:00:00 16.8 0 Calma 4 Sudoeste 0 903 0.2 59
2019-06-01 09:00:00 11.4 2 Sur 4 Sudeste 0 903 0.5 75
2019-06-01 08:00:00 6.7 0 Calma 3 Sudeste 0 903 0.3 89
2019-06-01 07:00:00 5.8 0 Calma 4 Este 0 902.8 0.2 87
2019-06-01 06:00:00 6.4 0 Calma 4 Este 0 902.5 -0.1 84
2019-06-01 05:00:00 7.2 0 Calma 5 Sudeste 0 902.7 -0.1 83
2019-06-01 04:00:00 8.2 0 Calma 4 Este 0 902.6 -0.5 78
2019-06-01 03:00:00 9.3 0 Calma 4 Sudeste 0 902.6 -0.4 75
2019-06-01 02:00:00 10.6 2 Sudeste 5 Este 0 902.8 0 69
2019-06-01 01:00:00 11.7 0 Calma 3 Nordeste 0 903.1 0.8 64
2019-06-01 00:00:00 13.6 2 Este 8 Este 0 903 1.2 54
2019-05-31 23:00:00 16.6 4 Este 6 Nordeste 0 902.8 1.2 45
2019-05-31 22:00:00 19.6 2 Este 13 Nordeste 0 902.3 1 40
2019-05-31 21:00:00 23.1 3 Norte 13 Nordeste 0 901.8 0.3 35
2019-05-31 20:00:00 25.7 5 Nordeste 22 Norte 0 901.6 -0.1 30
2019-05-31 19:00:00 27.5 6 Nordeste 24 Este 0 901.3 -0.8 22
2019-05-31 18:00:00 28.4 6 Nordeste 18 Este 0 901.5 -1.1 18
2019-05-31 17:00:00 28.2 8 Norte 24 Sudeste 0 901.7 -1.3 23
2019-05-31 16:00:00 27.5 6 Sur 20 Este 0 902.1 -1.5 25
2019-05-31 15:00:00 26.7 7 Sur 16 Sur 0 902.6 -1.3 23
2019-05-31 14:00:00 25.5 6 Sudeste 13 Sur 0 903 -1.1 22
2019-05-31 13:00:00 24.4 4 Este 14 Oeste 0 903.6 -0.9 24
2019-05-31 12:00:00 23.1 6 Sudoeste 14 Oeste 0 903.9 -0.7 28
2019-05-31 11:00:00 19.9 4 Noroeste 9 Noroeste 0 904.1 -0.6 45
2019-05-31 10:00:00 14.9 2 Nordeste 6 Este 0 904.5 0 61
2019-05-31 09:00:00 9.6 2 Este 3 Nordeste 0 904.6 0.2 74
2019-05-31 08:00:00 4.4 0 Calma 3 Este 0 904.7 0.1 88
2019-05-31 07:00:00 3.5 2 Este 5 Este 0 904.5 -0.1 87
2019-05-31 06:00:00 4 2 Este 4 Sudeste 0 904.4 -0.5 86
2019-05-31 05:00:00 4.6 2 Este 7 Sudeste 0 904.6 -0.4 83
2019-05-31 04:00:00 5.6 3 Sudeste 6 Sudeste 0 904.6 -0.4 81
2019-05-31 03:00:00 6.6 2 Este 4 Este 0 904.9 -0.3 77
2019-05-31 02:00:00 7.8 2 Este 4 Este 0 905 0.1 73
2019-05-31 01:00:00 9.5 0 Calma 7 Este 0 905 0.8 67
2019-05-31 00:00:00 11.8 3 Este 8 Este 0 905.2 1.6 59
2019-05-30 23:00:00 14.6 2 Este 11 Norte 0 904.9 1.6 50
2019-05-30 22:00:00 17 7 Norte 10 Norte 0 904.2 0.9 43
2019-05-30 21:00:00 21.3 5 Norte 15 Nordeste 0 903.6 0.2 31
2019-05-30 20:00:00 23.6 4 Nordeste 23 Norte 0 903.3 -0.4 28
2019-05-30 19:00:00 25.3 5 Norte 19 Norte 0 903.3 -0.6 23
2019-05-30 18:00:00 26.1 7 Norte 23 Norte 0 903.4 -0.8 22
2019-05-30 17:00:00 25.5 5 Norte 19 Norte 0 903.7 -0.6 25
2019-05-30 16:00:00 25 7 Nordeste 21 Norte 0 903.9 -0.6 21
2019-05-30 15:00:00 24.3 10 Norte 20 Norte 0 904.2 -0.7 24
2019-05-30 14:00:00 23.1 6 Norte 24 Nordeste 0 904.3 -0.6 30
2019-05-30 13:00:00 21.9 8 Norte 21 Noroeste 0 904.5 -0.6 39
2019-05-30 12:00:00 20.2 8 Norte 23 Norte 0 904.9 -0.2 41
2019-05-30 11:00:00 16.9 4 Oeste 8 Este 0 904.9 0.1 52
2019-05-30 10:00:00 12.8 3 Sudoeste 6 Sudoeste 0 905.1 0.4 64
2019-05-30 09:00:00 8.5 2 Sudoeste 5 Sudoeste 0 905.1 0.8 75
2019-05-30 08:00:00 3.6 3 Sudoeste 5 Sur 0 904.8 0.8 93
2019-05-30 07:00:00 3 2 Este 4 Este 0 904.7 0.3 89
2019-05-30 06:00:00 3.5 2 Nordeste 8 Sudeste 0 904.3 -0.2 88
2019-05-30 05:00:00 4.4 2 Sudeste 8 Sudeste 0 904 -0.6 86
2019-05-30 04:00:00 5.1 3 Este 12 Este 0 904.4 -0.1 85
2019-05-30 03:00:00 6 2 Nordeste 8 Este 0 904.5 0.2 82
2019-05-30 02:00:00 7.2 3 Este 9 Este 0 904.6 0.6 78
2019-05-30 01:00:00 8.6 4 Este 9 Este 0 904.5 1 72
2019-05-30 00:00:00 9.8 0 Calma 10 Este 0 904.3 1.3 68
2019-05-29 23:00:00 11.7 6 Noroeste 11 Norte 0 904 1.7 61
2019-05-29 22:00:00 13.7 6 Norte 20 Noroeste 0 903.5 1.6 53
2019-05-29 21:00:00 15.5 10 Norte 23 Norte 0 903 1.1 49
2019-05-29 20:00:00 17.5 10 Norte 25 Noroeste 0 902.3 0.1 43
2019-05-29 19:00:00 19.4 11 Norte 32 Norte 0 901.9 -0.3 39
2019-05-29 18:00:00 19.8 13 Norte 32 Norte 0 901.9 -0.2 38
2019-05-29 17:00:00 19.6 10 Norte 31 Norte 0 902.2 -0.2 40
2019-05-29 16:00:00 19.1 14 Norte 28 Noroeste 0 902.2 -0.4 44
2019-05-29 15:00:00 18.3 13 Norte 29 Norte 0 902.1 -0.3 44
2019-05-29 14:00:00 17.1 12 Norte 35 Norte 0 902.4 -0.1 45
2019-05-29 13:00:00 16.2 12 Norte 27 Norte 0 902.6 -0.2 50
2019-05-29 12:00:00 14.4 10 Norte 25 Norte 0 902.4 0 51
2019-05-29 11:00:00 13.2 8 Norte 19 Nordeste 0 902.5 0.4 54
2019-05-29 10:00:00 11.5 9 Norte 26 Norte 0 902.8 1.1 56
2019-05-29 09:00:00 9.2 8 Norte 21 Nordeste 0 902.4 0.9 68
2019-05-29 08:00:00 3.9 2 Este 8 Este 0 902.1 0.8 84
2019-05-29 07:00:00 3.4 2 Este 9 Norte 0 901.7 0.3 82
2019-05-29 06:00:00 3.4 3 Este 6 Este 0 901.5 0 81
2019-05-29 05:00:00 4.1 2 Norte 7 Norte 0 901.3 -0.1 80
2019-05-29 04:00:00 5.4 3 Norte 13 Noroeste 0 901.4 0.2 74
2019-05-29 03:00:00 6.2 5 Norte 21 Norte 0 901.5 0.6 72
2019-05-29 02:00:00 6.8 6 Noroeste 13 Noroeste 0 901.4 0.7 70
2019-05-29 01:00:00 7.6 3 Noroeste 12 Noroeste 0 901.2 1.2 68
2019-05-29 00:00:00 8.4 3 Noroeste 10 Noroeste 0 900.9 1.6 65
2019-05-28 23:00:00 9.6 5 Norte 20 Noroeste 0 900.7 2.4 58
2019-05-28 22:00:00 11.1 6 Norte 23 Norte 0 900 2.2 53
2019-05-28 21:00:00 13.5 11 Norte 28 Norte 0 899.3 2 49
2019-05-28 20:00:00 15.8 12 Norte 30 Norte 0 898.3 1.3 43
2019-05-28 19:00:00 17.7 10 Norte 37 Norte 0 897.8 0.7 40
2019-05-28 18:00:00 19.1 11 Norte 28 Nordeste 0 897.3 0.3 38
2019-05-28 17:00:00 19.6 12 Norte 35 Nordeste 0 897 -0.3 38
2019-05-28 16:00:00 19.1 12 Norte 29 Norte 0 897.1 -0.2 36
2019-05-28 15:00:00 17.9 11 Noroeste 29 Norte 0 897 -0.4 37
2019-05-28 14:00:00 17 11 Noroeste 28 Norte 0 897.3 0.2 41
2019-05-28 13:00:00 16.1 12 Norte 32 Noroeste 0 897.3 0.3 43
2019-05-28 12:00:00 14.9 9 Norte 22 Nordeste 0 897.4 0.4 45
2019-05-28 11:00:00 13.8 6 Noroeste 18 Norte 0 897.1 0.5 48
2019-05-28 10:00:00 11 4 Norte 12 Oeste 0 897 1.3 60
2019-05-28 09:00:00 8.1 3 Nordeste 8 Nordeste 0 897 1.5 77
2019-05-28 08:00:00 4.5 2 Nordeste 6 Este 0 896.6 1.3 92
2019-05-28 07:00:00 4.4 2 Este 7 Sudoeste 0 895.7 0.5 90
2019-05-28 06:00:00 4.9 2 Nordeste 5 Este 0 895.5 -0.4 90
2019-05-28 05:00:00 5.7 0 Calma 6 Sudeste 0 895.3 -0.9 89
2019-05-28 04:00:00 6.9 0 Calma 8 Sudeste 0 895.2 -1.3 86
2019-05-28 03:00:00 8 2 Nordeste 6 Norte 0 895.9 -0.6 85
2019-05-28 02:00:00 9.2 0 Calma 10 Norte 0 896.2 0.1 83
2019-05-28 01:00:00 10.9 0 Calma 14 Norte 0 896.5 1.1 77
2019-05-28 00:00:00 12 5 Nordeste 15 Norte 0 896.5 1.7 79
2019-05-27 23:00:00 12.8 0 Calma 6 Este 0 896.1 2.1 70
2019-05-27 22:00:00 15 3 Nordeste 15 Nordeste 0 895.4 1.7 62
2019-05-27 21:00:00 17 4 Nordeste 24 Norte 0 894.8 1.5 57
2019-05-27 20:00:00 18.8 7 Norte 29 Norte 0 894 0.5 53
2019-05-27 19:00:00 21.4 9 Norte 24 Norte 0 893.7 -0.1 43
2019-05-27 18:00:00 22.4 12 Norte 25 Norte 0 893.3 -0.8 37
2019-05-27 17:00:00 22.5 12 Norte 25 Norte 0 893.5 -1.1 38
2019-05-27 16:00:00 22.6 10 Norte 29 Noroeste 0 893.8 -1.2 33
2019-05-27 15:00:00 23.4 11 Norte 26 Noroeste 0 894.1 -1.2 32
2019-05-27 14:00:00 22.2 10 Noroeste 26 Noroeste 0 894.6 -0.9 38
2019-05-27 13:00:00 21.3 9 Noroeste 23 Norte 0 895 -0.8 44
2019-05-27 12:00:00 20 7 Norte 22 Noroeste 0 895.3 -0.5 44
2019-05-27 11:00:00 16.9 3 Noroeste 8 Sur 0 895.5 -0.3 56
2019-05-27 10:00:00 12.8 3 Sudoeste 4 Sudeste 0 895.8 0 71
2019-05-27 09:00:00 8.7 2 Sudoeste 4 Sudoeste 0 895.8 0 81
2019-05-27 08:00:00 4.8 2 Este 4 Este 0 895.8 -0.2 93
2019-05-27 07:00:00 3.7 3 Este 6 Sudeste 0 895.8 -0.8 92
2019-05-27 06:00:00 4.1 2 Nordeste 5 Este 0 895.8 -1.3 91
2019-05-27 05:00:00 4.5 2 Este 8 Sudeste 0 896 -1.5 92
2019-05-27 04:00:00 5 3 Sudeste 6 Este 0 896.6 -1.1 89
2019-05-27 03:00:00 5.7 0 Calma 9 Sudeste 0 897.1 -0.9 87
2019-05-27 02:00:00 6.7 3 Este 10 Este 0 897.5 -0.6 85
2019-05-27 01:00:00 7.9 3 Este 10 Sudeste 0 897.7 0.2 81
2019-05-27 00:00:00 9.7 5 Este 9 Este 0 898 0.8 75
2019-05-26 23:00:00 11.4 0 Calma 8 Noroeste 0 898.1 0.9 67
2019-05-26 22:00:00 13.9 3 Nordeste 19 Norte 0 897.5 0.2 56
2019-05-26 21:00:00 16.3 7 Noroeste 19 Norte 0 897.2 -0.3 47
2019-05-26 20:00:00 18.1 11 Norte 24 Noroeste 0 897.2 -0.3 42
2019-05-26 19:00:00 20 9 Noroeste 24 Norte 0 897.3 -0.6 38
2019-05-26 18:00:00 20.4 9 Noroeste 27 Norte 0 897.5 -0.7 39
2019-05-26 17:00:00 20.1 12 Norte 27 Norte 0 897.5 -1.1 41
2019-05-26 16:00:00 19.8 12 Norte 24 Noroeste 0 897.9 -0.9 38
2019-05-26 15:00:00 18.7 9 Norte 29 Norte 0 898.2 -1.1 47
2019-05-26 14:00:00 17.8 8 Norte 24 Norte 0 898.6 -0.7 48
2019-05-26 13:00:00 15.7 8 Norte 25 Norte 0 898.8 -0.5 50
2019-05-26 12:00:00 14.1 11 Norte 25 Norte 0 899.3 -0.2 57
2019-05-26 11:00:00 12 10 Norte 20 Nordeste 0 899.3 -0.2 61
2019-05-26 10:00:00 10.4 7 Norte 19 Noroeste 0 899.3 -0.1 70
2019-05-26 09:00:00 9.4 7 Norte 16 Norte 0 899.5 0.2 70
2019-05-26 08:00:00 6.3 2 Norte 10 Norte 0 899.5 0.2 82
2019-05-26 07:00:00 6.5 3 Nordeste 13 Nordeste 0 899.4 -0.1 81
2019-05-26 06:00:00 7.7 5 Norte 11 Norte 0 899.3 -0.3 80
2019-05-26 05:00:00 8.1 4 Noroeste 10 Norte 0 899.3 -0.8 81
2019-05-26 04:00:00 8.3 4 Norte 13 Norte 0 899.5 -0.8 81
2019-05-26 03:00:00 8.3 3 Norte 7 Norte 0 899.6 -0.9 81
2019-05-26 02:00:00 8.2 4 Norte 9 Este 0 900.1 -0.3 85
2019-05-26 01:00:00 7.7 3 Este 6 Norte 0 900.3 0.5 83
2019-05-26 00:00:00 9.5 2 Nordeste 6 Nordeste 0 900.5 1.4 76
2019-05-25 23:00:00 10.7 2 Norte 8 Norte 0 900.4 1.9 74
2019-05-25 22:00:00 11.9 2 Norte 15 Norte 0 899.8 1.4 70
2019-05-25 21:00:00 14.2 7 Norte 20 Norte 0 899.1 0.6 61
2019-05-25 20:00:00 16.3 12 Norte 22 Norte 0 898.5 0 54
2019-05-25 19:00:00 17.2 8 Norte 18 Norte 0 898.4 -0.4 51
2019-05-25 18:00:00 17.7 7 Norte 19 Norte 0 898.5 -0.6 48
2019-05-25 17:00:00 18 5 Norte 18 Norte 0 898.5 -0.8 52
2019-05-25 16:00:00 16.9 6 Norte 17 Norte 0 898.8 -0.5 50
2019-05-25 15:00:00 16 5 Nordeste 17 Nordeste 0 899.1 -0.2 54
2019-05-25 14:00:00 14.5 7 Norte 20 Norte 0 899.3 0.1 60
2019-05-25 13:00:00 13.6 7 Norte 19 Norte 0 899.3 0.4 62
2019-05-25 12:00:00 12.4 5 Nordeste 19 Norte 0 899.3 0.7 66
2019-05-25 11:00:00 11.3 8 Norte 18 Norte 0 899.2 1.1 70
2019-05-25 10:00:00 10.6 8 Norte 19 Norte 0 898.9 1.2 73
2019-05-25 09:00:00 9.3 9 Norte 19 Norte 0 898.6 1.1 75
2019-05-25 08:00:00 8.6 8 Noroeste 17 Norte 0 898.1 0.7 77
2019-05-25 07:00:00 8.4 7 Noroeste 18 Noroeste 0 897.7 0 77
2019-05-25 06:00:00 8.5 4 Noroeste 14 Norte 0 897.5 -0.1 79
2019-05-25 05:00:00 8.6 5 Norte 19 Nordeste 0 897.4 -0.3 79
2019-05-25 04:00:00 8.9 10 Norte 23 Norte 0 897.7 -0.2 81
2019-05-25 03:00:00 9.2 6 Norte 18 Norte 0 897.6 -0.3 81
2019-05-25 02:00:00 9.3 6 Noroeste 13 Noroeste 0 897.7 -0.1 81
2019-05-25 01:00:00 9.5 7 Noroeste 15 Noroeste 0 897.9 0.9 80
2019-05-25 00:00:00 9.8 4 Noroeste 19 Noroeste 0 897.9 1.2 79